Time;durP1;ratioP1;P1;durP2;ratioP2;P2;SDS_P1;SDS_P2;PMS_P1;PMS_P2;Temp;Humidity;BMP_temperature;BMP_pressure;BME280_temperature;BME280_humidity;BME280_pressure;Samples;Min_cycle;Max_cycle;Signal;HPM_P1;HPM_P2
2021/01/17 00:01:04;;;;;;;10.75;6.82;;;;;;;-8.05;48.05;102659.34;5046546;28;20037;-82
2021/01/17 00:03:31;;;;;;;13.52;6.72;;;;;;;-6.93;47.71;102787.97;5045141;28;20029;-82
2021/01/17 00:05:58;;;;;;;15.60;5.55;;;;;;;-7.34;47.06;102693.22;5045910;28;20055;-82
2021/01/17 00:08:26;;;;;;;15.80;7.75;;;;;;;-6.53;46.42;102772.28;5046211;28;20064;-83
2021/01/17 00:10:53;;;;;;;11.27;3.50;;;;;;;-8.18;44.38;102520.22;5028251;28;20116;-84
2021/01/17 00:13:23;;;;;;;20.30;6.28;;;;;;;-9.14;44.74;102365.06;5030142;28;20065;-83
2021/01/17 00:15:55;;;;;;;12.30;5.55;;;;;;;-6.80;45.25;102767.47;5030882;28;20140;-83
2021/01/17 00:18:29;;;;;;;10.23;4.97;;;;;;;-7.23;42.93;102699.84;5035404;28;20038;-82
2021/01/17 00:20:56;;;;;;;12.93;6.00;;;;;;;-6.89;43.61;102765.31;5036190;28;20025;-83
2021/01/17 00:23:26;;;;;;;14.10;5.03;;;;;;;-6.98;44.19;102728.09;5032377;28;20030;-81
2021/01/17 00:25:58;;;;;;;15.32;5.38;;;;;;;-6.93;44.23;102782.56;5027337;28;20021;-83
2021/01/17 00:28:26;;;;;;;10.02;6.05;;;;;;;-8.94;44.54;102527.75;5033473;28;20036;-82
2021/01/17 00:30:57;;;;;;;14.18;4.38;;;;;;;-8.13;44.25;102620.28;5022360;28;20032;-81
2021/01/17 00:33:24;;;;;;;7.97;4.15;;;;;;;-7.88;43.95;102612.75;5044107;28;20528;-81
2021/01/17 00:35:51;;;;;;;10.25;5.28;;;;;;;-8.19;43.47;102596.44;5030174;28;20040;-82
2021/01/17 00:38:18;;;;;;;10.32;4.75;;;;;;;-7.30;40.93;102678.63;5029919;28;20029;-81
2021/01/17 00:40:52;;;;;;;10.55;4.55;;;;;;;-7.05;41.06;102704.22;5045089;28;20032;-82
2021/01/17 00:43:22;;;;;;;9.63;5.20;;;;;;;-6.69;40.65;102774.09;5026737;28;20632;-83
2021/01/17 00:45:49;;;;;;;;;;;;;;;-6.56;38.63;102771.59;5046238;28;20037;-80
2021/01/17 00:48:25;;;;;;;8.80;3.55;;;;;;;-7.97;37.81;102598.00;5057181;28;19913;-84
2021/01/17 00:50:55;;;;;;;15.38;6.35;;;;;;;-6.95;38.88;102715.31;5051156;28;20025;-82
2021/01/17 00:53:29;;;;;;;8.98;5.68;;;;;;;-7.65;39.12;102641.09;5045866;28;20029;-82
2021/01/17 00:55:59;;;;;;;7.32;4.60;;;;;;;-6.61;38.56;102734.09;5064656;28;20084;-82
2021/01/17 00:58:35;;;;;;;8.50;5.10;;;;;;;-8.06;38.85;102491.81;5046018;28;20049;-82
2021/01/17 01:01:23;;;;;;;12.32;4.57;;;;;;;-8.89;38.36;102368.25;5055946;28;20068;-82
2021/01/17 01:03:51;;;;;;;8.13;3.13;;;;;;;-6.18;38.14;102785.53;5053112;28;20033;-84
2021/01/17 01:06:22;;;;;;;12.95;4.45;;;;;;;-6.42;37.23;102698.00;5052843;28;20072;-84
2021/01/17 01:09:10;;;;;;;8.13;4.65;;;;;;;-6.84;36.82;102604.28;5069627;28;20040;-85
2021/01/17 01:11:47;;;;;;;7.30;3.60;;;;;;;-7.68;37.17;102519.34;5068152;28;20040;-84
2021/01/17 01:14:22;;;;;;;11.02;4.65;;;;;;;-7.50;37.52;102541.66;5076835;28;20029;-84
2021/01/17 01:19:44;;;;;;;9.25;4.35;;;;;;;-6.53;38.36;102788.44;5120590;23;20065;-82
2021/01/17 01:22:28;;;;;;;10.60;3.05;;;;;;;-6.33;38.15;102779.22;5034263;28;20025;-83
2021/01/17 01:25:21;;;;;;;11.57;5.30;;;;;;;-7.10;37.20;102598.59;5010854;28;20097;-85
2021/01/17 01:28:08;;;;;;;9.07;3.17;;;;;;;-7.53;36.03;102569.59;5065697;23;20021;-83
2021/01/17 01:30:36;;;;;;;7.55;3.13;;;;;;;-8.00;35.30;102514.78;5009696;28;20033;-83
2021/01/17 01:33:34;;;;;;;6.93;2.85;;;;;;;-7.84;34.63;102453.81;5009132;28;20026;-84
2021/01/17 01:36:06;;;;;;;3.72;2.42;;;;;;;-7.16;34.20;102562.13;5371098;23;20061;-80
2021/01/17 01:38:35;;;;;;;15.10;3.15;;;;;;;-6.37;34.33;102647.41;5059352;28;20040;-79
2021/01/17 01:41:02;;;;;;;4.15;3.10;;;;;;;-6.31;33.68;102663.19;5059303;28;20036;-81
2021/01/17 01:43:29;;;;;;;6.35;2.55;;;;;;;-6.76;32.80;102526.56;5040236;28;20021;-81
2021/01/17 01:46:06;;;;;;;7.68;3.70;;;;;;;-7.62;32.87;102336.94;5063729;28;20055;-84
2021/01/17 01:48:35;;;;;;;6.93;3.30;;;;;;;-5.93;31.75;102654.56;5061110;28;20124;-84
2021/01/17 01:51:03;;;;;;;6.57;2.65;;;;;;;-6.35;31.44;102624.75;5056618;28;20028;-82
2021/01/17 01:53:30;;;;;;;10.43;3.75;;;;;;;-6.52;31.77;102550.31;5039610;28;20028;-82
2021/01/17 01:56:01;;;;;;;6.57;3.67;;;;;;;-6.98;32.06;102588.03;5057313;28;20033;-81
2021/01/17 01:58:32;;;;;;;8.13;4.18;;;;;;;-5.50;31.75;102718.53;5058075;28;20025;-82
2021/01/17 02:00:59;;;;;;;14.47;3.50;;;;;;;-5.97;30.76;102591.00;5035906;28;20493;-82
2021/01/17 02:03:26;;;;;;;5.30;2.90;;;;;;;-6.57;30.02;102503.03;5036588;28;20029;-81
2021/01/17 02:05:53;;;;;;;8.15;2.97;;;;;;;-6.94;29.34;102516.91;5053104;28;20498;-79
2021/01/17 02:08:45;;;;;;;10.32;3.22;;;;;;;-6.68;29.86;102588.09;5035879;28;20029;-79
2021/01/17 02:11:34;;;;;;;5.22;2.75;;;;;;;-6.90;29.72;102470.84;5038283;28;20025;-82
2021/01/17 02:14:34;;;;;;;5.47;3.40;;;;;;;-5.27;29.59;102720.75;5047427;28;20021;-81
2021/01/17 02:17:05;;;;;;;4.55;3.10;;;;;;;-6.02;29.93;102568.00;5051768;28;20183;-80
2021/01/17 02:19:38;;;;;;;7.47;3.42;;;;;;;-5.98;29.62;102540.72;5052705;28;20033;-81
2021/01/17 02:22:09;;;;;;;10.70;4.03;;;;;;;-5.34;29.57;102646.50;5052906;28;20040;-82
2021/01/17 02:24:52;;;;;;;4.85;2.92;;;;;;;-4.35;28.51;102679.72;5054234;28;20025;-81
2021/01/17 02:27:20;;;;;;;16.55;4.28;;;;;;;-4.57;28.71;102675.75;5054462;28;20080;-80
2021/01/17 02:29:50;;;;;;;6.13;3.08;;;;;;;-4.70;29.04;102675.69;5056376;28;20029;-80
2021/01/17 02:32:18;;;;;;;11.75;4.10;;;;;;;-6.42;29.42;102423.06;5053714;28;20021;-80
2021/01/17 02:34:51;;;;;;;8.45;3.65;;;;;;;-5.39;29.82;102566.66;5054265;28;20359;-79
2021/01/17 02:37:54;;;;;;;9.35;3.30;;;;;;;-6.31;30.03;102407.06;5032327;28;20494;-79
2021/01/17 02:40:41;;;;;;;10.30;3.97;;;;;;;-5.40;29.18;102521.72;5020082;28;20041;-81
2021/01/17 02:43:08;;;;;;;7.57;3.00;;;;;;;-4.65;29.52;102568.13;5032525;28;20048;-81
2021/01/17 02:45:38;;;;;;;9.00;4.03;;;;;;;-4.67;28.79;102562.84;5022601;28;20030;-81
2021/01/17 02:48:06;;;;;;;7.82;3.30;;;;;;;-4.89;28.60;102482.34;5014048;28;20029;-81
2021/01/17 02:50:36;;;;;;;10.77;4.00;;;;;;;-4.60;28.45;102520.00;5004988;28;20465;-79
2021/01/17 02:53:18;;;;;;;;;;;;;;;-3.85;28.10;102593.31;5039024;28;20101;-80
2021/01/17 02:55:48;;;;;;;5.97;3.08;;;;;;;-4.64;28.35;102496.84;5041727;28;19984;-81
2021/01/17 02:58:19;;;;;;;6.75;3.75;;;;;;;-4.24;28.39;102552.69;5048033;28;20091;-80
2021/01/17 03:00:53;;;;;;;9.93;3.22;;;;;;;-5.26;28.17;102393.03;5020052;28;20065;-81
2021/01/17 03:03:31;;;;;;;9.75;4.30;;;;;;;-5.87;28.35;102281.06;5023546;28;20032;-80
2021/01/17 03:06:07;;;;;;;9.05;2.92;;;;;;;-4.52;28.68;102533.00;5042124;28;20026;-82
2021/01/17 03:08:38;;;;;;;5.18;3.55;;;;;;;-4.98;30.46;102483.81;5041301;28;20018;-82
2021/01/17 03:11:06;;;;;;;5.88;3.22;;;;;;;-4.82;32.98;102537.69;5039074;28;20413;-81
2021/01/17 03:13:40;;;;;;;5.75;3.40;;;;;;;-5.61;32.47;102380.94;5063479;28;20025;-81
2021/01/17 03:16:09;;;;;;;7.32;3.35;;;;;;;-5.80;34.12;102448.75;5046144;28;20119;-80
2021/01/17 03:18:37;;;;;;;8.52;3.28;;;;;;;-5.23;33.71;102541.34;5045072;28;20028;-80
2021/01/17 03:21:04;;;;;;;6.32;4.45;;;;;;;-5.17;32.29;102548.19;5036952;28;20036;-81
2021/01/17 03:23:32;;;;;;;4.88;3.65;;;;;;;-5.38;32.31;102444.19;5063142;28;20548;-80
2021/01/17 03:26:00;;;;;;;4.57;2.88;;;;;;;-5.80;31.35;102370.53;5021269;28;20030;-82
2021/01/17 03:28:29;;;;;;;6.90;3.35;;;;;;;-6.73;31.76;102277.66;5021562;28;20076;-81
2021/01/17 03:30:56;;;;;;;5.68;2.40;;;;;;;-6.07;32.40;102352.53;5042135;28;20029;-81
2021/01/17 03:33:25;;;;;;;9.40;3.60;;;;;;;-4.46;32.09;102483.91;5041386;28;20024;-80
2021/01/17 03:35:52;;;;;;;11.02;4.28;;;;;;;-4.40;33.54;102447.47;5040725;28;20021;-82
2021/01/17 03:38:21;;;;;;;9.75;4.40;;;;;;;-4.91;34.91;102343.78;5042419;28;20049;-81
2021/01/17 03:40:54;;;;;;;7.28;4.65;;;;;;;-3.74;34.71;102478.84;5060560;28;20070;-82
2021/01/17 03:43:28;;;;;;;13.65;6.85;;;;;;;-4.91;33.97;102238.41;5063657;28;20029;-82
2021/01/17 03:45:56;;;;;;;8.73;4.68;;;;;;;-4.79;33.67;102282.59;5049261;28;20030;-81
2021/01/17 03:48:24;;;;;;;6.75;3.50;;;;;;;-3.67;33.34;102446.75;5022257;28;20028;-81
2021/01/17 03:50:52;;;;;;;12.23;3.80;;;;;;;-4.68;33.72;102274.56;5024324;28;20029;-83
2021/01/17 03:53:19;;;;;;;9.57;4.50;;;;;;;-3.50;33.89;102446.34;5025714;28;20033;-81
2021/01/17 03:55:46;;;;;;;10.02;4.15;;;;;;;-3.69;35.01;102437.88;5064213;28;20108;-83
2021/01/17 03:58:13;;;;;;;9.63;3.75;;;;;;;-3.81;35.65;102445.09;5065147;28;20059;-83
2021/01/17 04:00:40;;;;;;;7.38;4.03;;;;;;;-4.09;36.37;102442.56;5047886;28;20116;-81
2021/01/17 04:03:06;;;;;;;11.20;3.83;;;;;;;-4.45;35.96;102322.53;5063271;28;20021;-81
2021/01/17 04:05:36;;;;;;;5.80;4.20;;;;;;;-4.68;35.41;102284.53;5060733;28;20036;-81
2021/01/17 04:08:05;;;;;;;7.90;4.00;;;;;;;-5.23;35.26;102231.66;5044406;28;20033;-81
2021/01/17 04:10:31;;;;;;;10.25;4.07;;;;;;;-5.20;35.21;102200.00;5060490;28;20044;-81
2021/01/17 04:13:01;;;;;;;9.88;4.18;;;;;;;-5.05;35.53;102242.09;5061691;28;20031;-83
2021/01/17 04:15:34;;;;;;;7.57;4.15;;;;;;;-4.62;35.13;102316.53;5062474;28;20087;-83
2021/01/17 04:18:01;;;;;;;6.53;3.30;;;;;;;-5.29;35.10;102134.03;5059896;28;20040;-81
2021/01/17 04:20:34;;;;;;;10.27;4.32;;;;;;;-4.30;34.42;102278.13;5054845;28;20024;-83
2021/01/17 04:23:04;;;;;;;9.10;4.68;;;;;;;-4.06;35.32;102371.09;5055546;28;20078;-83
2021/01/17 04:25:31;;;;;;;7.15;3.58;;;;;;;-4.74;35.40;102230.91;5043225;28;20025;-82
2021/01/17 04:27:59;;;;;;;7.85;4.47;;;;;;;-3.87;35.23;102378.75;5041542;28;20129;-81
2021/01/17 04:30:31;;;;;;;11.25;4.75;;;;;;;-4.52;35.29;102254.50;5057705;28;20389;-81
2021/01/17 04:32:59;;;;;;;8.52;4.00;;;;;;;-5.38;34.36;102157.16;5060218;28;20029;-81
2021/01/17 04:35:27;;;;;;;10.50;4.93;;;;;;;-5.36;35.26;102218.16;5057508;28;20033;-81
2021/01/17 04:38:01;;;;;;;9.82;4.65;;;;;;;-4.03;34.74;102363.63;5040936;28;20131;-82
2021/01/17 04:40:29;;;;;;;7.75;4.78;;;;;;;-4.45;33.60;102296.34;5041181;28;20108;-81
2021/01/17 04:43:30;;;;;;;5.50;3.45;;;;;;;-3.81;33.15;102355.75;5061049;28;20031;-82
2021/01/17 04:46:02;;;;;;;6.10;4.40;;;;;;;-4.45;33.05;102200.88;5045271;28;20044;-83
2021/01/17 04:48:31;;;;;;;9.43;3.90;;;;;;;-3.82;32.14;102298.03;5056547;28;20085;-83
2021/01/17 04:51:02;;;;;;;9.10;4.78;;;;;;;-3.29;31.03;102353.63;5058215;28;20025;-81
2021/01/17 04:53:33;;;;;;;6.35;3.88;;;;;;;-3.98;31.09;102222.59;5053037;28;20053;-82
2021/01/17 04:56:24;;;;;;;8.88;4.80;;;;;;;-3.66;31.48;102334.78;5035966;28;20033;-82
2021/01/17 04:59:19;;;;;;;16.30;5.43;;;;;;;-4.17;32.60;102339.47;5040749;28;20030;-83
2021/01/17 05:01:49;;;;;;;15.85;4.82;;;;;;;-3.94;34.70;102329.59;5041155;28;20056;-81
2021/01/17 05:04:55;;;;;;;11.45;5.75;;;;;;;-3.56;35.40;102330.41;5054798;28;20029;-81
2021/01/17 05:07:30;;;;;;;11.70;5.75;;;;;;;-3.62;33.81;102292.97;5056762;28;20044;-83
2021/01/17 05:10:11;;;;;;;11.70;4.82;;;;;;;-3.75;33.54;102157.69;5054315;28;20059;-83
2021/01/17 05:12:52;;;;;;;7.85;4.93;;;;;;;-3.32;33.31;102170.50;5034469;28;20456;-86
2021/01/17 05:15:23;;;;;;;10.65;5.13;;;;;;;-3.35;32.76;102176.19;5056250;28;20108;-82
2021/01/17 05:17:55;;;;;;;7.93;4.32;;;;;;;-3.79;32.44;102162.50;5037946;28;20040;-82
2021/01/17 05:20:22;;;;;;;10.55;3.80;;;;;;;-3.48;32.71;102229.59;5055435;28;20115;-82
2021/01/17 05:22:50;;;;;;;6.63;3.55;;;;;;;-3.58;32.44;102121.16;5054365;28;20043;-82
2021/01/17 05:25:20;;;;;;;7.78;3.35;;;;;;;-3.58;31.65;102100.38;5037860;28;20032;-81
2021/01/17 05:27:49;;;;;;;11.45;3.78;;;;;;;-3.63;31.17;102058.41;5054633;28;20021;-82
2021/01/17 05:30:17;;;;;;;6.32;3.38;;;;;;;-2.80;30.90;102201.66;5036174;28;20072;-81
2021/01/17 05:32:49;;;;;;;7.72;3.90;;;;;;;-2.87;30.99;102203.16;5051930;28;20025;-81
2021/01/17 05:35:22;;;;;;;10.05;4.05;;;;;;;-3.51;31.20;102087.19;5052546;28;20116;-80
2021/01/17 05:37:55;;;;;;;11.23;2.88;;;;;;;-2.90;32.47;102272.84;5028963;28;20049;-81
2021/01/17 05:40:23;;;;;;;10.60;4.00;;;;;;;-2.97;33.92;102244.53;5052355;28;20087;-80
2021/01/17 05:42:50;;;;;;;9.13;3.30;;;;;;;-3.38;34.48;102181.84;5055560;28;20036;-83
2021/01/17 05:45:20;;;;;;;7.47;3.97;;;;;;;-3.57;34.82;102091.25;5041878;28;20029;-80
2021/01/17 05:48:00;;;;;;;6.10;3.42;;;;;;;-2.58;36.20;102248.69;5043427;28;20055;-82
2021/01/17 05:50:29;;;;;;;7.32;3.80;;;;;;;-2.80;38.44;102255.88;5063758;28;20025;-82
2021/01/17 05:53:06;;;;;;;4.78;2.38;;;;;;;-2.61;39.05;102258.78;5039713;28;20136;-81
2021/01/17 05:55:41;;;;;;;9.82;4.47;;;;;;;-2.96;40.31;102254.41;5059012;28;20032;-81
2021/01/17 05:58:35;;;;;;;8.77;4.20;;;;;;;-2.40;40.57;102249.88;5036672;28;20025;-85
2021/01/17 06:01:24;;;;;;;5.63;3.05;;;;;;;-2.76;41.76;102254.63;5034831;28;20029;-81
2021/01/17 06:03:55;;;;;;;7.40;3.50;;;;;;;-3.21;41.71;102221.13;5057745;28;20033;-82
2021/01/17 06:06:30;;;;;;;9.43;3.38;;;;;;;-3.48;41.83;102180.84;5039997;28;20033;-81
2021/01/17 06:09:02;;;;;;;9.32;3.97;;;;;;;-3.42;41.25;102179.50;5035866;28;20056;-83
2021/01/17 06:11:31;;;;;;;8.60;3.75;;;;;;;-3.76;40.98;102053.09;5029769;28;20402;-83
2021/01/17 06:14:00;;;;;;;8.88;3.72;;;;;;;-2.48;40.51;102238.81;5031031;28;20482;-84
2021/01/17 06:16:35;;;;;;;8.10;3.97;;;;;;;-3.04;40.80;102167.41;5036620;28;20025;-81
2021/01/17 06:19:07;;;;;;;11.45;4.90;;;;;;;-3.94;41.17;101990.50;5068351;28;20404;-82
2021/01/17 06:21:36;;;;;;;7.43;3.97;;;;;;;-4.59;42.67;102032.47;5060867;28;20060;-82
2021/01/17 06:24:05;;;;;;;10.23;4.72;;;;;;;-4.61;43.91;102071.41;5038758;28;20539;-82
2021/01/17 06:26:33;;;;;;;13.02;5.03;;;;;;;-3.07;43.15;102243.56;5055985;28;20021;-80
2021/01/17 06:29:01;;;;;;;11.50;4.72;;;;;;;-3.66;43.97;102091.13;5054124;28;20028;-83
2021/01/17 06:31:31;;;;;;;15.07;7.15;;;;;;;-3.22;45.77;102238.38;5057741;28;20021;-81
2021/01/17 06:34:12;;;;;;;17.48;6.95;;;;;;;-4.22;45.89;102042.25;5059578;28;20497;-82
2021/01/17 06:36:47;;;;;;;13.65;7.88;;;;;;;-4.73;46.80;101957.00;5060007;28;20049;-80
2021/01/17 06:39:30;;;;;;;15.23;8.25;;;;;;;-3.53;47.66;102215.53;5059457;28;20036;-80
2021/01/17 06:41:57;;;;;;;11.55;5.38;;;;;;;-3.48;47.48;102138.41;5031314;28;20407;-81
2021/01/17 06:44:30;;;;;;;8.85;4.85;;;;;;;-3.39;48.67;102153.03;5041277;28;20049;-83
2021/01/17 06:47:01;;;;;;;8.02;4.65;;;;;;;-3.67;50.29;102166.06;5063917;28;20032;-82
2021/01/17 06:49:33;;;;;;;5.93;3.63;;;;;;;-3.39;49.97;102139.47;5068145;28;20029;-83
2021/01/17 06:52:07;;;;;;;13.40;4.63;;;;;;;-3.29;50.17;102153.16;5046964;28;20035;-81
2021/01/17 06:54:56;;;;;;;16.70;6.43;;;;;;;-2.82;50.11;102247.84;5065502;28;20096;-82
2021/01/17 06:59:58;;;;;;;9.55;5.10;;;;;;;-5.27;50.95;101878.25;5220266;23;20032;-82
2021/01/17 07:02:38;;;;;;;6.47;4.07;;;;;;;-3.23;51.80;102228.53;5071461;28;20112;-82
2021/01/17 07:05:23;;;;;;;7.25;3.47;;;;;;;-3.23;51.85;102228.53;5072139;28;20036;-83
2021/01/17 07:08:31;;;;;;;10.43;4.65;;;;;;;-4.21;50.88;101986.31;5063303;28;20052;-84
2021/01/17 07:11:17;;;;;;;17.42;5.93;;;;;;;-2.97;50.60;102228.25;5065366;28;20029;-86
2021/01/17 07:13:49;;;;;;;12.52;6.70;;;;;;;-4.08;50.93;102014.13;5074669;28;20029;-81
2021/01/17 07:16:31;;;;;;;10.15;5.15;;;;;;;-3.63;50.66;102064.66;5060319;28;20036;-81
2021/01/17 07:19:05;;;;;;;12.63;5.97;;;;;;;-2.64;50.43;102229.22;5071095;28;20028;-81
2021/01/17 07:21:38;;;;;;;17.17;8.35;;;;;;;-4.07;51.29;102059.13;5063228;28;20024;-81
2021/01/17 07:24:08;;;;;;;16.25;7.18;;;;;;;-3.17;50.73;102179.28;5059295;28;20024;-83
2021/01/17 07:27:22;;;;;;;13.90;5.03;;;;;;;-2.86;51.21;102234.69;5077466;28;20012;-80
2021/01/17 07:29:52;;;;;;;13.10;4.03;;;;;;;-3.60;50.12;102086.09;4976162;28;20085;-83
2021/01/17 07:32:34;;;;;;;10.65;4.45;;;;;;;-3.37;50.65;102144.78;5042905;28;20029;-82
2021/01/17 07:35:11;;;;;;;22.30;7.97;;;;;;;-5.05;52.17;101888.25;5039768;28;20033;-81
2021/01/17 07:37:43;;;;;;;20.00;6.80;;;;;;;-4.37;52.04;102001.06;5063704;28;20016;-83
2021/01/17 07:40:10;;;;;;;10.88;5.63;;;;;;;-2.54;51.71;102201.34;5064419;28;20033;-83
2021/01/17 07:42:38;;;;;;;10.25;6.10;;;;;;;-2.74;52.52;102206.56;5040439;28;20090;-85
2021/01/17 07:45:19;;;;;;;15.25;6.30;;;;;;;-2.93;52.44;102158.41;5042325;28;20078;-84
2021/01/17 07:47:48;;;;;;;12.60;6.07;;;;;;;-2.63;52.04;102171.28;5052544;28;20025;-94
2021/01/17 07:50:15;;;;;;;19.98;6.88;;;;;;;-3.99;52.75;102004.38;5037550;28;20029;-96
2021/01/17 08:06:41;;;;;;;9.32;4.15;;;;;;;-4.39;55.12;101913.78;5055239;28;20127;-93
2021/01/17 08:09:17;;;;;;;13.93;4.57;;;;;;;-3.00;55.82;102179.75;5015888;28;20045;-95
2021/01/17 08:12:01;;;;;;;9.45;5.03;;;;;;;-2.55;55.59;102194.19;5008667;28;20029;-96
2021/01/17 08:14:30;;;;;;;9.90;4.22;;;;;;;-3.19;55.76;102083.72;5001577;28;20026;-96
2021/01/17 08:17:09;;;;;;;14.55;6.15;;;;;;;-2.71;56.72;102194.59;5016920;28;20026;-96
2021/01/17 08:19:56;;;;;;;11.03;6.33;;;;;;;-2.71;56.58;102194.59;5002906;28;20029;-95
2021/01/17 08:22:22;;;;;;;13.55;6.35;;;;;;;-2.57;56.44;102193.47;5000486;28;20029;-96
2021/01/17 08:24:50;;;;;;;11.07;4.60;;;;;;;-2.43;55.63;102187.75;4998421;28;20030;-94
2021/01/17 08:27:33;;;;;;;8.13;5.13;;;;;;;-2.46;55.90;102187.16;4998784;28;20054;-95
2021/01/17 08:30:06;;;;;;;12.02;5.20;;;;;;;-2.65;57.03;102186.84;5002042;28;20025;-94
2021/01/17 08:32:45;;;;;;;10.60;4.43;;;;;;;-2.59;56.95;102173.72;5015192;28;20391;-96
2021/01/17 08:35:24;;;;;;;11.55;4.72;;;;;;;-2.53;57.27;102175.94;5000643;28;20133;-95
2021/01/17 08:38:13;;;;;;;10.50;4.53;;;;;;;-2.69;57.27;102177.22;5003727;28;20479;-93
2021/01/17 08:40:43;;;;;;;9.60;4.45;;;;;;;-2.55;56.54;102159.78;5001959;28;20079;-93
2021/01/17 08:43:15;;;;;;;12.13;4.20;;;;;;;-2.43;55.98;102165.19;5000904;28;20066;-94
2021/01/17 08:45:46;;;;;;;17.83;4.63;;;;;;;-2.45;56.18;102175.31;4999355;28;20552;-95
2021/01/17 08:48:21;;;;;;;9.70;4.07;;;;;;;-2.44;56.49;102164.31;4994010;28;20045;-96
2021/01/17 08:50:50;;;;;;;8.18;4.88;;;;;;;-2.61;56.17;102125.91;5013657;28;20030;-94
2021/01/17 08:53:23;;;;;;;8.65;4.53;;;;;;;-2.30;56.42;102159.59;5027854;28;20021;-96
2021/01/17 08:55:52;;;;;;;9.32;4.47;;;;;;;-2.55;57.88;102181.47;5018694;28;20056;-95
2021/01/17 08:58:48;;;;;;;11.20;5.13;;;;;;;-2.73;58.67;102170.34;5022780;28;20047;-93
2021/01/17 09:04:46;;;;;;;28.23;5.18;;;;;;;-3.07;58.31;102116.19;5052644;28;20422;-94
2021/01/17 09:07:40;;;;;;;8.07;4.33;;;;;;;-4.41;57.77;101876.06;5058386;28;20113;-94
2021/01/17 09:10:08;;;;;;;;;;;;;;;-2.57;57.68;102155.50;5019460;28;20040;-96
2021/01/17 09:12:39;;;;;;;20.92;4.55;;;;;;;-3.57;56.50;101999.19;5015648;28;19901;-92
2021/01/17 09:18:39;;;;;;;14.40;4.95;;;;;;;-3.16;55.95;102072.63;5054781;28;20048;-94
2021/01/17 09:21:10;;;;;;;17.35;5.60;;;;;;;-3.72;56.00;101955.31;5038752;28;20031;-93
2021/01/17 09:23:41;;;;;;;9.73;4.45;;;;;;;-3.15;54.95;102051.81;5040707;28;20035;-89
2021/01/17 09:26:07;;;;;;;9.23;5.53;;;;;;;-2.74;54.66;102119.78;5039070;28;20025;-93
2021/01/17 09:28:34;;;;;;;8.52;4.45;;;;;;;-3.51;54.55;101984.28;5019611;28;20021;-93
2021/01/17 09:31:02;;;;;;;10.10;4.90;;;;;;;-2.54;54.32;102092.88;5020103;28;20036;-91
2021/01/17 09:33:31;;;;;;;6.72;4.47;;;;;;;-2.82;54.55;102070.78;5020796;28;20036;-93
2021/01/17 09:35:58;;;;;;;8.10;4.30;;;;;;;-3.11;54.95;102036.13;5034402;28;20025;-91
2021/01/17 09:38:26;;;;;;;10.90;4.93;;;;;;;-3.31;54.87;101988.03;5016925;28;20394;-91
2021/01/17 09:40:59;;;;;;;9.07;4.65;;;;;;;-2.46;54.88;102105.78;5031761;28;20038;-90
2021/01/17 09:43:26;;;;;;;10.70;5.53;;;;;;;-2.72;55.86;102122.38;5034815;28;20168;-92
2021/01/17 09:45:58;;;;;;;10.77;6.93;;;;;;;-3.47;56.39;102007.44;5024473;28;20040;-92
2021/01/17 09:48:25;;;;;;;12.57;4.95;;;;;;;-2.47;56.24;102153.72;5043330;28;20068;-92
2021/01/17 09:50:52;;;;;;;7.53;3.85;;;;;;;-2.67;56.90;102095.75;5032324;28;20032;-90
2021/01/17 09:53:54;;;;;;;13.05;5.60;;;;;;;-2.82;57.93;102119.56;5036113;28;20021;-92
2021/01/17 09:56:21;;;;;;;15.65;5.28;;;;;;;-2.38;57.83;102125.81;5034029;28;20024;-96
2021/01/17 09:58:48;;;;;;;10.80;5.55;;;;;;;-2.51;58.01;102115.16;5029543;28;20033;-96
2021/01/17 10:01:21;;;;;;;7.65;4.90;;;;;;;-2.23;60.87;102139.06;5020319;28;20387;-93
2021/01/17 10:03:49;;;;;;;14.52;6.03;;;;;;;-2.99;62.81;102045.97;5034078;28;20036;-89
2021/01/17 10:06:17;;;;;;;16.45;6.65;;;;;;;-2.77;64.15;102063.13;5070310;28;20052;-89
2021/01/17 10:08:49;;;;;;;16.65;6.22;;;;;;;-2.50;65.64;102095.19;5075741;28;20766;-90
2021/01/17 10:11:23;;;;;;;14.93;6.85;;;;;;;-2.93;66.99;102080.69;5059697;28;20086;-89
2021/01/17 10:13:50;;;;;;;10.52;7.47;;;;;;;-3.47;66.87;101955.09;5058663;28;20040;-84
2021/01/17 10:16:24;;;;;;;13.93;7.05;;;;;;;-3.42;67.70;101990.78;5079761;28;20040;-91
2021/01/17 10:18:51;;;;;;;13.80;5.93;;;;;;;-2.27;68.56;102149.34;5055197;28;20615;-91
2021/01/17 10:21:18;;;;;;;15.38;7.68;;;;;;;-2.82;69.87;102095.19;5053850;28;20028;-91
2021/01/17 10:23:51;;;;;;;22.60;8.35;;;;;;;-2.59;69.90;102098.69;5042139;28;20036;-91
2021/01/17 10:26:23;;;;;;;12.35;7.18;;;;;;;-2.59;71.06;102095.09;5041167;28;20040;-91
2021/01/17 10:28:51;;;;;;;22.85;8.82;;;;;;;-2.89;71.71;102017.06;5054021;28;20063;-92
2021/01/17 10:31:23;;;;;;;14.65;8.07;;;;;;;-2.39;71.79;102080.69;5053702;28;20024;-93
2021/01/17 10:33:50;;;;;;;17.02;8.63;;;;;;;-2.62;72.02;102026.56;5053398;28;20034;-89
2021/01/17 10:36:17;;;;;;;14.48;7.78;;;;;;;-2.01;72.14;102146.25;5053304;28;20409;-88
2021/01/17 10:38:50;;;;;;;15.55;8.73;;;;;;;-3.27;72.78;101983.22;5035259;28;20037;-89
2021/01/17 10:41:26;;;;;;;16.10;7.30;;;;;;;-2.50;73.42;102124.16;5037822;28;20029;-96
2021/01/17 10:44:06;;;;;;;19.20;9.95;;;;;;;-3.04;74.80;102059.03;5047735;28;20028;-91
2021/01/17 10:47:19;;;;;;;15.85;7.80;;;;;;;-3.81;77.35;101931.69;5059063;28;20029;-91
2021/01/17 10:52:27;;;;;;;15.68;6.97;;;;;;;-4.24;81.59;101910.84;6017915;23;20016;-80
2021/01/17 10:54:54;;;;;;;21.75;9.85;;;;;;;-4.21;83.33;101943.91;5004159;28;20062;-83
2021/01/17 10:57:22;;;;;;;13.75;7.85;;;;;;;-4.32;84.68;101939.38;5002521;28;20036;-81
2021/01/17 10:59:56;;;;;;;26.15;8.80;;;;;;;-4.23;85.87;101942.31;5020075;28;20022;-82
2021/01/17 11:02:25;;;;;;;45.65;11.52;;;;;;;-3.64;86.78;102048.56;5021317;28;20037;-82
2021/01/17 11:04:52;;;;;;;21.85;9.93;;;;;;;-3.64;87.76;102062.09;5002891;28;20064;-82
2021/01/17 11:07:25;;;;;;;22.92;9.00;;;;;;;-4.34;88.12;101918.84;5003693;28;20018;-81
2021/01/17 11:10:17;;;;;;;23.27;10.18;;;;;;;-3.91;88.48;101965.91;5016169;28;20038;-82
2021/01/17 11:12:45;;;;;;;21.70;11.35;;;;;;;-4.79;88.14;101842.16;4991912;28;20034;-84
2021/01/17 11:15:17;;;;;;;23.95;9.13;;;;;;;-4.67;87.05;101849.28;5025031;28;20102;-84
2021/01/17 11:18:02;;;;;;;20.85;10.15;;;;;;;-3.67;87.25;101970.28;5034630;28;20032;-85
2021/01/17 11:20:36;;;;;;;21.38;10.50;;;;;;;-2.83;86.92;102136.84;5021026;28;20057;-86
2021/01/17 11:23:26;;;;;;;27.17;10.27;;;;;;;-2.81;86.13;102118.56;5026778;28;20030;-95
2021/01/17 11:29:16;;;;;;;17.90;7.78;;;;;;;-2.72;85.24;102100.69;5236460;23;20053;-93
2021/01/17 11:31:47;;;;;;;22.77;10.82;;;;;;;-4.29;84.78;101868.78;5065657;28;20366;-81
2021/01/17 11:34:25;;;;;;;23.08;10.63;;;;;;;-2.83;85.31;102112.44;5081399;28;20013;-88
2021/01/17 11:37:22;;;;;;;18.98;8.80;;;;;;;-3.63;85.39;101923.03;5038940;28;20021;-90
2021/01/17 11:40:09;;;;;;;23.27;8.25;;;;;;;-2.75;84.93;102061.13;5041503;28;20044;-89
2021/01/17 11:42:37;;;;;;;16.88;8.77;;;;;;;-2.82;84.50;102013.84;5043579;28;20036;-90
2021/01/17 11:45:23;;;;;;;21.02;7.93;;;;;;;-2.39;84.61;102106.97;5058324;28;20166;-90
2021/01/17 11:48:10;;;;;;;18.40;7.50;;;;;;;-5.40;86.47;101674.03;5038609;28;20013;-86
2021/01/17 11:51:08;;;;;;;15.02;8.05;;;;;;;-3.05;87.04;102046.47;5068155;28;20036;-88
2021/01/17 11:53:36;;;;;;;13.45;6.65;;;;;;;-4.04;86.38;101876.75;5062465;28;20033;-89
2021/01/17 11:56:04;;;;;;;17.42;7.78;;;;;;;-2.54;83.75;102106.41;5045684;28;20462;-87
2021/01/17 11:58:42;;;;;;;21.45;7.78;;;;;;;-3.72;82.38;101925.53;5065927;28;20516;-86
2021/01/17 12:01:09;;;;;;;17.83;8.32;;;;;;;-3.20;80.78;101959.22;5063351;28;20025;-89
2021/01/17 12:03:41;;;;;;;17.20;8.85;;;;;;;-2.67;81.14;102069.47;5054305;28;20086;-89
2021/01/17 12:06:18;;;;;;;14.20;6.97;;;;;;;-2.17;80.30;102092.44;5052484;28;20024;-92
2021/01/17 12:09:09;;;;;;;14.98;6.75;;;;;;;-2.26;80.09;102079.66;5043388;28;20104;-88
2021/01/17 12:11:38;;;;;;;;;;;;;;;-2.20;79.98;102079.13;5055341;28;20075;-90
2021/01/17 12:14:12;;;;;;;16.73;5.65;;;;;;;-3.21;78.75;101944.78;5055397;28;19917;-86
2021/01/17 12:16:44;;;;;;;10.32;5.45;;;;;;;-3.49;79.04;101936.31;5056076;28;20028;-83
2021/01/17 12:19:15;;;;;;;15.43;5.80;;;;;;;-2.89;78.81;102005.41;5081686;28;20027;-86
2021/01/17 12:21:44;;;;;;;16.73;6.30;;;;;;;-3.18;79.00;101971.66;5050551;28;20040;-86
2021/01/17 12:24:15;;;;;;;16.00;6.38;;;;;;;-2.54;80.02;102110.00;5050882;28;20051;-84